Time;durP1;ratioP1;P1;durP2;ratioP2;P2;SDS_P1;SDS_P2;PMS_P1;PMS_P2;Temp;Humidity;BMP_temperature;BMP_pressure;BME280_temperature;BME280_humidity;BME280_pressure;Samples;Min_cycle;Max_cycle;Signal;HPM_P1;HPM_P2
2023/05/01 00:01:16;;;;;;;5.30;3.53;;;3.80;99.90;3.50;101021.00;;;;4930596;28;87737;-69
2023/05/01 00:03:42;;;;;;;5.73;3.93;;;3.80;99.90;3.50;101027.00;;;;4929816;28;88009;-69
2023/05/01 00:06:07;;;;;;;3.70;3.23;;;3.40;99.90;3.40;101030.00;;;;4929425;28;117154;-68
2023/05/01 00:08:33;;;;;;;3.73;3.07;;;3.70;99.90;3.30;101029.00;;;;4927524;28;93937;-68
2023/05/01 00:11:08;;;;;;;3.67;2.67;;;3.60;99.90;3.30;101035.00;;;;4927361;28;88820;-68
2023/05/01 00:13:34;;;;;;;4.40;2.67;;;3.60;99.90;3.30;101018.00;;;;4926448;28;87742;-68
2023/05/01 00:16:00;;;;;;;4.57;3.13;;;3.50;99.90;3.20;101021.00;;;;4925837;28;88824;-68
2023/05/01 00:18:25;;;;;;;5.97;3.87;;;3.50;99.90;3.10;101011.00;;;;4929584;28;87850;-68
2023/05/01 00:20:51;;;;;;;5.17;3.77;;;3.50;99.90;3.10;101018.00;;;;4930960;28;87793;-69
2023/05/01 00:23:17;;;;;;;4.33;3.90;;;3.40;99.90;3.00;101031.00;;;;4930144;28;118559;-69
2023/05/01 00:25:42;;;;;;;3.83;3.03;;;3.30;99.90;2.90;101021.00;;;;4931419;28;118478;-68
2023/05/01 00:28:08;;;;;;;6.83;3.03;;;3.20;99.90;2.90;101012.00;;;;4928329;28;87297;-69
2023/05/01 00:30:34;;;;;;;3.63;3.03;;;3.20;99.90;2.90;101009.00;;;;4932267;28;87927;-69
2023/05/01 00:33:00;;;;;;;5.83;4.40;;;3.10;99.90;2.90;101014.00;;;;4928546;28;100398;-68
2023/05/01 00:35:26;;;;;;;6.20;3.77;;;3.10;99.90;2.90;101011.00;;;;4927690;28;88973;-69
2023/05/01 00:37:52;;;;;;;6.90;4.40;;;3.10;99.90;2.90;101006.00;;;;4929387;28;87946;-69
2023/05/01 00:40:18;;;;;;;4.50;3.93;;;3.20;99.90;2.90;101020.00;;;;4930321;28;108780;-69
2023/05/01 00:42:44;;;;;;;5.33;3.77;;;3.20;99.90;2.90;101004.00;;;;4930928;28;87841;-69
2023/05/01 00:45:10;;;;;;;4.23;3.57;;;3.20;99.90;2.90;101004.00;;;;4927576;28;115379;-69
2023/05/01 00:47:36;;;;;;;7.80;4.40;;;3.20;99.90;2.90;101001.00;;;;4924082;28;88109;-69
2023/05/01 00:50:03;;;;;;;9.17;4.37;;;3.20;99.90;2.90;101010.00;;;;4930781;28;88347;-69
2023/05/01 00:52:29;;;;;;;7.70;3.43;;;3.20;99.90;2.90;100991.00;;;;4928993;28;88451;-69
2023/05/01 00:54:56;;;;;;;8.57;4.83;;;3.30;99.90;2.90;100992.00;;;;4926051;28;117565;-69
2023/05/01 00:57:22;;;;;;;4.37;3.60;;;3.20;99.90;2.80;100993.00;;;;4930138;28;87783;-69
2023/05/01 00:59:48;;;;;;;4.80;4.13;;;3.20;99.90;2.80;100995.00;;;;4930691;28;88675;-69
2023/05/01 01:02:14;;;;;;;8.87;3.80;;;3.70;99.90;2.80;100982.00;;;;4928813;28;88124;-69
2023/05/01 01:04:44;;;;;;;4.67;3.53;;;3.10;99.90;2.80;100985.00;;;;4927464;28;88170;-69
2023/05/01 01:07:32;;;;;;;4.83;3.90;;;3.10;99.90;2.70;100979.00;;;;4930148;28;87985;-70
2023/05/01 01:10:26;;;;;;;5.27;3.87;;;3.10;99.90;2.70;100987.00;;;;4928647;28;88152;-69
2023/05/01 01:13:28;;;;;;;10.53;4.90;;;3.00;99.90;2.60;100994.00;;;;4910681;28;91719;-69
2023/05/01 01:16:32;;;;;;;5.10;4.63;;;3.00;99.90;2.60;100979.00;;;;4929080;28;87881;-69
2023/05/01 01:19:18;;;;;;;4.13;3.30;;;2.90;99.90;2.50;100990.00;;;;4877954;28;87086;-69
2023/05/01 01:21:49;;;;;;;5.87;4.00;;;2.80;99.90;2.50;100985.00;;;;4928823;28;88052;-69
2023/05/01 01:25:05;;;;;;;5.67;3.77;;;2.80;99.90;2.40;100979.00;;;;4926695;28;89470;-70
2023/05/01 01:28:25;;;;;;;9.30;4.17;;;2.70;99.90;2.40;100985.00;;;;4929918;28;90270;-69
2023/05/01 01:31:04;;;;;;;5.10;4.53;;;2.70;99.90;2.40;100991.00;;;;4926335;28;87855;-69
2023/05/01 01:33:54;;;;;;;4.83;3.40;;;2.70;99.90;2.40;100986.00;;;;4928257;28;87984;-69
2023/05/01 01:37:04;;;;;;;5.33;3.70;;;2.70;99.90;2.40;100980.00;;;;4926905;28;88134;-70
2023/05/01 01:39:45;;;;;;;8.13;3.90;;;2.70;99.90;2.40;100970.00;;;;4909607;28;90302;-69
2023/05/01 01:42:19;;;;;;;5.83;3.90;;;2.70;99.90;2.40;100967.00;;;;4927443;28;88077;-69
2023/05/01 01:44:51;;;;;;;5.23;4.07;;;2.70;99.90;2.40;100966.00;;;;4927470;28;88354;-69
2023/05/01 01:47:19;;;;;;;4.50;3.07;;;2.70;99.90;2.40;100961.00;;;;4927854;28;106945;-69
2023/05/01 01:49:51;;;;;;;8.03;4.10;;;2.70;99.90;2.40;100955.00;;;;4927910;28;87978;-69
2023/05/01 01:52:17;;;;;;;8.57;4.53;;;2.70;99.90;2.40;100958.00;;;;4927494;28;88200;-69
2023/05/01 01:54:51;;;;;;;5.13;3.70;;;2.70;99.90;2.40;100955.00;;;;4924730;28;109143;-69
2023/05/01 01:57:20;;;;;;;8.07;5.03;;;2.70;99.90;2.40;100955.00;;;;4927512;28;89245;-69
2023/05/01 01:59:47;;;;;;;4.27;3.67;;;2.70;99.90;2.40;100953.00;;;;4927401;28;96067;-70
2023/05/01 02:02:17;;;;;;;5.00;3.83;;;2.70;99.90;2.40;100945.00;;;;4930262;28;87835;-69
2023/05/01 02:04:43;;;;;;;8.17;4.60;;;3.20;99.90;2.40;100943.00;;;;4926031;28;88143;-69
2023/05/01 02:07:11;;;;;;;6.73;4.40;;;2.70;99.90;2.30;100937.00;;;;4928281;28;116913;-70
2023/05/01 02:09:37;;;;;;;7.57;5.43;;;2.60;99.90;2.30;100942.00;;;;4927416;28;88116;-68
2023/05/01 02:12:07;;;;;;;6.33;4.60;;;2.60;99.90;2.20;100936.00;;;;4922702;28;111233;-70
2023/05/01 02:14:34;;;;;;;6.37;4.87;;;2.60;99.90;2.20;100946.00;;;;4927538;28;87768;-70
2023/05/01 02:17:01;;;;;;;9.90;6.17;;;2.50;99.90;2.10;100942.00;;;;4927771;28;109230;-70
2023/05/01 02:19:28;;;;;;;6.83;4.67;;;2.40;99.90;2.10;100926.00;;;;4925321;28;91148;-70
2023/05/01 02:21:57;;;;;;;8.40;5.83;;;3.10;99.90;2.10;100928.00;;;;4925936;28;87766;-68
2023/05/01 02:24:24;;;;;;;7.83;5.43;;;2.30;99.90;2.00;100921.00;;;;4926304;28;107895;-69
2023/05/01 02:26:58;;;;;;;9.23;5.13;;;2.40;99.90;2.00;100922.00;;;;4924576;28;88274;-71
2023/05/01 02:29:25;;;;;;;6.50;5.50;;;2.30;99.90;1.90;100913.00;;;;4928832;28;88080;-69
2023/05/01 02:31:50;;;;;;;9.53;5.80;;;2.20;99.90;1.90;100922.00;;;;4930435;28;87889;-68
2023/05/01 02:34:16;;;;;;;9.63;5.17;;;2.20;99.90;1.80;100906.00;;;;4924908;28;109012;-68
2023/05/01 02:36:42;;;;;;;7.57;5.93;;;2.20;99.90;1.80;100907.00;;;;4922555;28;115842;-69
2023/05/01 02:39:07;;;;;;;8.13;5.30;;;2.10;99.90;1.80;100916.00;;;;4914053;28;88084;-68
2023/05/01 02:41:35;;;;;;;10.67;6.33;;;2.10;99.90;1.70;100904.00;;;;4926179;28;108805;-69
2023/05/01 02:44:03;;;;;;;13.40;6.03;;;2.10;99.90;1.70;100901.00;;;;4925494;28;102235;-68
2023/05/01 02:46:35;;;;;;;12.90;7.20;;;2.00;99.90;1.70;100897.00;;;;4924822;28;88336;-69
2023/05/01 02:49:02;;;;;;;5.97;5.30;;;2.00;99.90;1.60;100898.00;;;;4922722;28;88017;-68
2023/05/01 02:51:30;;;;;;;11.77;6.83;;;2.00;99.90;1.60;100901.00;;;;4926490;28;92074;-68
2023/05/01 02:53:56;;;;;;;11.37;7.00;;;1.90;99.90;1.50;100894.00;;;;4930352;28;88107;-68
2023/05/01 02:56:25;;;;;;;9.03;7.30;;;1.90;99.90;1.50;100903.00;;;;4927376;28;88100;-69
2023/05/01 02:58:52;;;;;;;12.30;7.03;;;1.80;99.90;1.50;100893.00;;;;4924843;28;88580;-70
2023/05/01 03:01:18;;;;;;;8.77;6.53;;;1.80;99.90;1.50;100882.00;;;;4926159;28;87346;-68
2023/05/01 03:03:44;;;;;;;6.17;5.57;;;1.80;99.90;1.50;100885.00;;;;4925851;28;87885;-69
2023/05/01 03:06:09;;;;;;;11.07;7.53;;;1.70;99.90;1.50;100895.00;;;;4927392;28;118411;-69
2023/05/01 03:08:35;;;;;;;12.90;7.90;;;1.80;99.90;1.50;100896.00;;;;4908570;28;88977;-68
2023/05/01 03:11:05;;;;;;;11.40;7.30;;;2.50;99.90;1.50;100877.00;;;;4925872;28;89170;-69
2023/05/01 03:13:31;;;;;;;8.87;5.73;;;1.80;99.90;1.50;100882.00;;;;4925408;28;87682;-68
2023/05/01 03:16:01;;;;;;;11.87;6.97;;;1.80;99.90;1.50;100888.00;;;;4923785;28;107695;-68
2023/05/01 03:18:26;;;;;;;8.93;7.07;;;1.80;99.90;1.40;100882.00;;;;4908732;28;89617;-69
2023/05/01 03:20:55;;;;;;;10.50;6.37;;;1.70;99.90;1.40;100883.00;;;;4927109;28;87981;-69
2023/05/01 03:23:22;;;;;;;14.57;7.63;;;1.70;99.90;1.40;100887.00;;;;4924473;28;87849;-68
2023/05/01 03:25:48;;;;;;;14.07;8.40;;;1.80;99.90;1.40;100884.00;;;;4924669;28;90810;-68
2023/05/01 03:28:14;;;;;;;12.73;6.53;;;1.70;99.90;1.40;100882.00;;;;4923715;28;88222;-68
2023/05/01 03:30:40;;;;;;;10.40;8.03;;;1.70;99.90;1.40;100885.00;;;;4930843;28;88131;-68
2023/05/01 03:33:05;;;;;;;8.70;6.50;;;1.70;99.90;1.30;100874.00;;;;4924288;28;107415;-68
2023/05/01 03:35:31;;;;;;;9.93;7.10;;;1.70;99.90;1.30;100877.00;;;;4926986;28;88822;-68
2023/05/01 03:37:57;;;;;;;11.60;7.60;;;1.60;99.90;1.30;100871.00;;;;4927212;28;117241;-69
2023/05/01 03:40:22;;;;;;;10.83;6.67;;;1.60;99.90;1.30;100863.00;;;;4931628;28;111654;-68
2023/05/01 03:42:48;;;;;;;13.17;8.30;;;1.60;99.90;1.20;100873.00;;;;4928293;28;108400;-68
2023/05/01 03:45:14;;;;;;;13.70;8.13;;;1.50;99.90;1.20;100863.00;;;;4927728;28;117851;-69
2023/05/01 03:47:39;;;;;;;12.50;8.10;;;1.60;99.90;1.20;100870.00;;;;4930467;28;116703;-69
2023/05/01 03:50:06;;;;;;;13.83;8.63;;;1.50;99.90;1.10;100864.00;;;;4926973;28;110506;-68
2023/05/01 03:52:32;;;;;;;17.00;9.53;;;1.50;99.90;1.10;100879.00;;;;4930634;28;88016;-68
2023/05/01 03:54:57;;;;;;;18.33;9.53;;;1.40;99.90;1.10;100878.00;;;;4929719;28;88671;-69
2023/05/01 03:57:23;;;;;;;13.33;10.70;;;1.40;99.90;1.10;100871.00;;;;4926503;28;117686;-68
2023/05/01 03:59:49;;;;;;;17.80;10.20;;;1.40;99.90;1.10;100879.00;;;;4928723;28;88731;-69
2023/05/01 04:02:15;;;;;;;14.77;8.37;;;1.40;99.90;1.10;100866.00;;;;4925809;28;104131;-68
2023/05/01 04:04:41;;;;;;;13.53;9.40;;;1.40;99.90;1.10;100863.00;;;;4930072;28;87791;-68
2023/05/01 04:07:06;;;;;;;19.00;10.67;;;1.40;99.90;1.10;100868.00;;;;4925599;28;87903;-69
2023/05/01 04:09:32;;;;;;;17.47;12.13;;;1.40;99.90;1.10;100849.00;;;;4927753;28;109839;-69
2023/05/01 04:11:58;;;;;;;24.73;15.23;;;1.40;99.90;1.20;100853.00;;;;4927253;28;88993;-68
2023/05/01 04:14:23;;;;;;;28.03;13.60;;;1.50;99.90;1.30;100857.00;;;;4928826;28;88188;-68
2023/05/01 04:16:50;;;;;;;28.40;15.87;;;1.60;99.90;1.50;100852.00;;;;4926052;28;88021;-69
2023/05/01 04:19:22;;;;;;;15.87;10.23;;;1.70;99.90;1.60;100847.00;;;;4924547;28;87823;-69
2023/05/01 04:21:48;;;;;;;15.53;10.67;;;1.80;99.90;1.60;100858.00;;;;4927213;28;108933;-68
2023/05/01 04:24:15;;;;;;;16.17;9.83;;;2.20;99.90;1.80;100860.00;;;;4924035;28;102753;-68
2023/05/01 04:26:41;;;;;;;15.57;9.57;;;2.00;99.90;1.90;100851.00;;;;4930769;28;88535;-69
2023/05/01 04:29:08;;;;;;;13.17;9.83;;;2.10;99.90;2.00;100855.00;;;;4926173;28;88132;-68
2023/05/01 04:31:33;;;;;;;17.37;9.43;;;2.30;99.90;2.10;100862.00;;;;4924623;28;92338;-68
2023/05/01 04:34:00;;;;;;;12.90;8.63;;;2.40;99.90;2.30;100858.00;;;;4923672;28;117714;-68
2023/05/01 04:36:25;;;;;;;12.83;8.53;;;2.50;99.90;2.40;100851.00;;;;4924022;28;105323;-68
2023/05/01 04:38:51;;;;;;;17.43;10.57;;;2.60;99.90;2.60;100849.00;;;;4927047;28;110523;-68
2023/05/01 04:41:17;;;;;;;11.33;8.47;;;2.80;99.90;2.80;100854.00;;;;4924667;28;108950;-68
2023/05/01 04:43:42;;;;;;;16.97;9.17;;;2.90;99.90;3.00;100847.00;;;;4909083;28;117447;-70
2023/05/01 04:46:08;;;;;;;16.80;9.83;;;3.10;99.90;3.20;100836.00;;;;4923953;28;116976;-68
2023/05/01 04:48:34;;;;;;;11.30;9.07;;;3.40;99.90;3.40;100846.00;;;;4924063;28;88172;-68
2023/05/01 04:51:02;;;;;;;12.63;8.97;;;3.60;99.90;3.60;100844.00;;;;4925395;28;87690;-68
2023/05/01 04:53:28;;;;;;;9.23;6.83;;;3.80;99.90;3.80;100834.00;;;;4925557;28;88970;-69
2023/05/01 04:55:53;;;;;;;8.07;7.27;;;4.00;99.90;4.00;100846.00;;;;4927167;28;117941;-70
2023/05/01 04:58:19;;;;;;;16.93;8.80;;;4.10;99.90;4.20;100830.00;;;;4930004;28;105220;-71
2023/05/01 05:00:45;;;;;;;13.03;8.43;;;4.60;99.90;4.40;100835.00;;;;4924067;28;108746;-70
2023/05/01 05:03:10;;;;;;;14.57;10.13;;;4.50;99.90;4.70;100831.00;;;;4923583;28;117870;-71
2023/05/01 05:05:36;;;;;;;21.53;10.47;;;4.70;99.90;4.90;100832.00;;;;4924767;28;117568;-71
2023/05/01 05:08:02;;;;;;;16.37;9.60;;;4.90;99.90;5.10;100844.00;;;;4926021;28;112209;-71
2023/05/01 05:10:27;;;;;;;18.13;10.67;;;5.20;99.90;5.40;100832.00;;;;4922852;28;109211;-68
2023/05/01 05:12:53;;;;;;;14.93;10.00;;;5.40;99.90;5.60;100827.00;;;;4920282;28;114031;-69
2023/05/01 05:15:19;;;;;;;12.40;8.30;;;5.60;99.90;5.80;100834.00;;;;4923661;28;88833;-69
2023/05/01 05:17:44;;;;;;;12.83;8.77;;;6.40;99.90;6.00;100830.00;;;;4920864;28;112456;-69
2023/05/01 05:20:10;;;;;;;11.97;8.57;;;6.00;99.90;6.30;100827.00;;;;4925572;28;108773;-70
2023/05/01 05:22:36;;;;;;;12.27;7.80;;;6.80;99.90;6.50;100832.00;;;;4920511;28;107906;-69
2023/05/01 05:25:04;;;;;;;12.40;7.77;;;6.50;99.90;6.70;100822.00;;;;4923940;28;87980;-70
2023/05/01 05:27:35;;;;;;;19.67;7.87;;;6.70;99.90;6.90;100831.00;;;;4923939;28;87048;-70
2023/05/01 05:30:01;;;;;;;9.87;7.63;;;6.90;99.90;7.10;100825.00;;;;4922511;28;87973;-70
2023/05/01 05:32:28;;;;;;;13.67;8.23;;;7.10;99.90;7.30;100833.00;;;;4922634;28;89251;-69
2023/05/01 05:34:53;;;;;;;17.47;10.63;;;7.80;99.90;7.50;100821.00;;;;4921899;28;89116;-69
2023/05/01 05:37:19;;;;;;;17.47;9.53;;;7.60;99.90;7.80;100824.00;;;;4926892;28;87848;-70
2023/05/01 05:39:45;;;;;;;12.47;8.60;;;7.70;99.90;7.90;100824.00;;;;4924659;28;107381;-70
2023/05/01 05:42:10;;;;;;;19.93;9.97;;;7.90;99.90;8.10;100823.00;;;;4921203;28;115666;-69
2023/05/01 05:44:37;;;;;;;16.13;9.57;;;8.50;99.90;8.30;100828.00;;;;4924267;28;117506;-69
2023/05/01 05:47:03;;;;;;;14.10;9.00;;;8.30;99.90;8.50;100830.00;;;;4923850;28;88119;-70
2023/05/01 05:49:29;;;;;;;13.50;10.93;;;8.90;99.90;8.70;100828.00;;;;4922111;28;88219;-69
2023/05/01 05:51:55;;;;;;;17.17;11.60;;;8.60;99.90;8.80;100828.00;;;;4922524;28;88288;-68
2023/05/01 05:54:20;;;;;;;18.03;9.70;;;8.80;99.90;9.00;100821.00;;;;4921923;28;89540;-69
2023/05/01 05:56:46;;;;;;;15.93;9.70;;;9.00;99.90;9.20;100830.00;;;;4923491;28;113093;-69
2023/05/01 05:59:11;;;;;;;15.03;11.10;;;9.10;99.90;9.40;100832.00;;;;4922782;28;109371;-69
2023/05/01 06:01:39;;;;;;;14.23;8.70;;;9.40;99.90;9.60;100824.00;;;;4921539;28;116285;-70
2023/05/01 06:04:05;;;;;;;11.93;10.43;;;9.50;99.90;9.90;100826.00;;;;4924719;28;88534;-70
2023/05/01 06:06:31;;;;;;;20.20;12.50;;;9.80;99.90;10.10;100832.00;;;;4921666;28;88037;-70
2023/05/01 06:08:57;;;;;;;19.37;9.80;;;10.00;99.90;10.20;100828.00;;;;4921161;28;87913;-70
2023/05/01 06:11:23;;;;;;;20.43;11.37;;;10.20;99.90;10.40;100824.00;;;;4924121;28;110201;-70
2023/05/01 06:13:48;;;;;;;18.27;10.50;;;10.40;99.90;10.60;100826.00;;;;4908879;28;118086;-70
2023/05/01 06:16:14;;;;;;;13.77;9.50;;;10.50;99.90;10.80;100825.00;;;;4922294;28;86962;-70
2023/05/01 06:18:40;;;;;;;22.27;9.83;;;10.70;99.90;11.00;100827.00;;;;4923489;28;108371;-70
2023/05/01 06:21:06;;;;;;;22.07;11.47;;;10.90;99.90;11.20;100828.00;;;;4923089;28;116848;-69
2023/05/01 06:23:32;;;;;;;17.17;10.30;;;11.20;99.30;11.40;100816.00;;;;4922829;28;108723;-70
2023/05/01 06:25:59;;;;;;;17.57;9.43;;;11.30;98.10;11.60;100821.00;;;;4925872;28;88045;-69
2023/05/01 06:28:24;;;;;;;19.93;10.47;;;11.50;97.70;11.90;100823.00;;;;4920471;28;87972;-70
2023/05/01 06:30:50;;;;;;;15.97;10.03;;;11.80;97.50;12.20;100829.00;;;;4919297;28;117163;-69
2023/05/01 06:33:16;;;;;;;18.10;10.87;;;12.00;96.80;12.60;100825.00;;;;4924362;28;102862;-69
2023/05/01 06:35:41;;;;;;;17.00;10.50;;;12.40;96.70;12.90;100818.00;;;;4922408;28;113711;-69
2023/05/01 06:38:07;;;;;;;19.87;11.10;;;12.70;95.90;13.20;100817.00;;;;4919131;28;108448;-69
2023/05/01 06:40:34;;;;;;;15.70;10.33;;;12.90;94.00;13.40;100815.00;;;;4921411;28;117040;-69
2023/05/01 06:43:01;;;;;;;15.53;10.90;;;13.20;93.20;13.50;100807.00;;;;4924551;28;88803;-69
2023/05/01 06:45:27;;;;;;;20.20;9.73;;;13.40;92.60;13.70;100810.00;;;;4923040;28;87937;-70
2023/05/01 06:47:53;;;;;;;13.37;9.67;;;13.60;92.50;13.90;100811.00;;;;4923260;28;108122;-67
2023/05/01 06:50:18;;;;;;;15.00;11.63;;;13.80;92.40;14.10;100809.00;;;;4922099;28;87986;-69
2023/05/01 06:52:44;;;;;;;18.30;10.90;;;14.00;92.10;14.40;100805.00;;;;4923519;28;118138;-69
2023/05/01 06:55:11;;;;;;;20.13;10.73;;;14.20;90.90;14.60;100798.00;;;;4922229;28;87876;-68
2023/05/01 06:57:38;;;;;;;18.27;11.27;;;14.40;89.50;14.90;100807.00;;;;4921937;28;87951;-69
2023/05/01 07:00:05;;;;;;;27.08;12.20;;;14.70;87.00;15.00;100807.00;;;;4925498;28;87890;-67
2023/05/01 07:02:31;;;;;;;20.85;12.52;;;14.90;81.20;15.10;100805.00;;;;4922615;28;89140;-68
2023/05/01 07:04:57;;;;;;;18.45;11.15;;;15.00;80.00;15.20;100800.00;;;;4922421;28;113067;-67
2023/05/01 07:07:23;;;;;;;19.23;12.52;;;15.10;78.20;15.20;100797.00;;;;4922383;28;88219;-68
2023/05/01 07:09:48;;;;;;;19.25;11.40;;;15.10;73.70;15.20;100791.00;;;;4920657;28;88016;-68
2023/05/01 07:12:14;;;;;;;15.07;11.85;;;15.10;72.80;15.30;100792.00;;;;4922148;28;117211;-68
2023/05/01 07:14:40;;;;;;;14.27;10.25;;;15.20;72.60;15.40;100792.00;;;;4921290;28;88114;-68
2023/05/01 07:17:07;;;;;;;21.83;9.93;;;15.30;71.10;15.50;100784.00;;;;4923523;28;88054;-68
2023/05/01 07:19:33;;;;;;;13.60;8.63;;;15.30;69.30;15.60;100785.00;;;;4926933;28;88975;-68
2023/05/01 07:21:59;;;;;;;17.95;8.10;;;15.40;66.40;15.50;100784.00;;;;4921074;28;88514;-68
2023/05/01 07:24:25;;;;;;;12.13;9.57;;;15.50;65.50;15.60;100784.00;;;;4922861;28;87949;-69
2023/05/01 07:26:51;;;;;;;16.65;7.57;;;15.50;64.80;15.60;100778.00;;;;4921546;28;92869;-68
2023/05/01 07:29:17;;;;;;;12.00;8.27;;;15.50;64.10;15.70;100790.00;;;;4922113;28;87713;-68
2023/05/01 07:31:43;;;;;;;12.48;7.28;;;15.60;63.00;15.70;100778.00;;;;4922039;28;87958;-68
2023/05/01 07:34:10;;;;;;;13.45;7.57;;;15.60;63.30;15.90;100778.00;;;;4918048;28;87880;-69
2023/05/01 07:36:36;;;;;;;14.30;7.00;;;15.80;62.50;16.00;100774.00;;;;4918161;28;89769;-69
2023/05/01 07:39:02;;;;;;;11.93;8.48;;;15.90;61.40;16.20;100774.00;;;;4921876;28;89241;-68
2023/05/01 07:41:29;;;;;;;9.65;7.93;;;16.10;61.00;16.30;100768.00;;;;4922267;28;87975;-68
2023/05/01 07:43:58;;;;;;;12.10;6.82;;;16.20;59.50;16.40;100773.00;;;;4921857;28;87937;-69
2023/05/01 07:46:24;;;;;;;9.93;6.05;;;16.30;59.30;16.60;100766.00;;;;4922577;28;87747;-69
2023/05/01 07:48:49;;;;;;;12.45;6.10;;;16.40;58.30;16.80;100759.00;;;;4921343;28;117578;-69
2023/05/01 07:51:17;;;;;;;9.60;5.50;;;16.60;57.60;16.90;100764.00;;;;4921561;28;118502;-68
2023/05/01 07:53:43;;;;;;;8.68;4.35;;;16.70;57.40;17.00;100762.00;;;;4923913;28;87685;-68
2023/05/01 07:56:09;;;;;;;4.40;2.45;;;16.80;58.30;17.30;100762.00;;;;4926271;28;87829;-69
2023/05/01 07:58:40;;;;;;;6.10;2.17;;;17.00;57.20;17.50;100756.00;;;;4922847;28;88210;-68
2023/05/01 08:01:06;;;;;;;5.97;1.95;;;17.20;55.00;17.50;100756.00;;;;4927016;28;88920;-69
2023/05/01 08:03:31;;;;;;;2.60;2.40;;;17.40;54.90;17.60;100768.00;;;;4923600;28;87910;-69
2023/05/01 08:05:57;;;;;;;2.15;2.00;;;17.50;53.00;17.60;100758.00;;;;4923200;28;107887;-69
2023/05/01 08:08:23;;;;;;;2.20;1.95;;;17.50;53.30;17.80;100766.00;;;;4921792;28;117392;-68
2023/05/01 08:10:50;;;;;;;1.55;0.90;;;17.70;52.10;18.00;100753.00;;;;4921537;28;88822;-69
2023/05/01 08:13:16;;;;;;;2.65;1.65;;;17.80;51.60;18.00;100749.00;;;;4919128;28;94516;-71
2023/05/01 08:15:42;;;;;;;3.00;1.63;;;17.90;50.80;18.00;100760.00;;;;4921415;28;87911;-70
2023/05/01 08:18:08;;;;;;;2.88;1.33;;;17.90;50.30;18.00;100762.00;;;;4920252;28;117067;-69
2023/05/01 08:20:37;;;;;;;4.32;2.33;;;17.90;49.40;17.80;100758.00;;;;4922832;28;115899;-68
2023/05/01 08:23:03;;;;;;;1.13;1.00;;;17.80;49.60;17.70;100762.00;;;;4923303;28;110655;-69
2023/05/01 08:25:30;;;;;;;1.75;1.65;;;17.70;49.00;17.70;100757.00;;;;4921483;28;108953;-70
2023/05/01 08:27:56;;;;;;;2.50;1.38;;;17.70;50.20;17.90;100759.00;;;;4925337;28;87989;-69
2023/05/01 08:30:21;;;;;;;2.05;1.45;;;17.70;49.80;18.00;100755.00;;;;4923342;28;116840;-70
2023/05/01 08:32:47;;;;;;;1.15;1.05;;;17.90;49.30;18.10;100751.00;;;;4922264;28;101534;-70
2023/05/01 08:35:13;;;;;;;5.25;1.10;;;18.00;48.70;18.20;100755.00;;;;4925787;28;87757;-70
2023/05/01 08:37:38;;;;;;;2.15;1.85;;;18.10;47.60;18.20;100753.00;;;;4924354;28;118471;-71
2023/05/01 08:40:07;;;;;;;1.45;1.17;;;18.10;47.30;18.20;100756.00;;;;4921362;28;117171;-70
2023/05/01 08:42:37;;;;;;;1.60;1.50;;;18.10;48.00;18.50;100756.00;;;;4928276;28;87193;-70
2023/05/01 08:45:07;;;;;;;1.15;1.05;;;18.20;48.00;18.60;100758.00;;;;4922354;28;87708;-71
2023/05/01 08:47:39;;;;;;;1.50;1.23;;;18.40;47.10;18.70;100754.00;;;;4927505;28;89006;-70
2023/05/01 08:50:12;;;;;;;3.35;2.03;;;18.50;46.30;18.70;100752.00;;;;4923106;28;89059;-70
2023/05/01 08:52:42;;;;;;;2.97;1.40;;;18.50;46.60;18.80;100741.00;;;;4924342;28;87712;-71
2023/05/01 08:55:19;;;;;;;5.88;1.60;;;18.60;47.00;18.80;100754.00;;;;4922873;28;88096;-70
2023/05/01 08:57:46;;;;;;;1.60;1.50;;;18.60;46.80;19.10;100746.00;;;;4927923;28;88083;-70
2023/05/01 09:00:20;;;;;;;1.20;1.10;;;18.80;46.40;19.30;100751.00;;;;4927058;28;88120;-70
2023/05/01 09:02:47;;;;;;;3.40;1.42;;;19.00;46.30;19.30;100742.00;;;;4921667;28;87725;-70
2023/05/01 09:05:16;;;;;;;1.73;1.52;;;19.10;45.60;19.30;100736.00;;;;4922229;28;87985;-71
2023/05/01 09:07:43;;;;;;;1.42;1.00;;;19.10;46.40;19.40;100739.00;;;;4929201;28;88683;-70
2023/05/01 09:10:17;;;;;;;2.50;1.13;;;19.20;45.40;19.50;100735.00;;;;4926544;28;87990;-70
2023/05/01 09:12:48;;;;;;;2.83;1.42;;;19.30;45.60;19.60;100732.00;;;;4926392;28;88163;-70
2023/05/01 09:15:25;;;;;;;4.55;1.85;;;19.40;45.60;19.70;100730.00;;;;4925635;28;89112;-70
2023/05/01 09:17:52;;;;;;;1.70;1.50;;;19.80;44.90;19.80;100729.00;;;;4926997;28;88168;-70
2023/05/01 09:20:19;;;;;;;1.48;1.38;;;19.50;45.40;19.90;100721.00;;;;4926221;28;109731;-70
2023/05/01 09:22:44;;;;;;;3.33;1.73;;;19.60;45.10;20.00;100711.00;;;;4923883;28;87753;-71
2023/05/01 09:25:10;;;;;;;3.95;1.75;;;19.70;45.50;20.10;100712.00;;;;4923255;28;109779;-70
2023/05/01 09:27:37;;;;;;;1.80;1.38;;;19.80;44.40;20.20;100714.00;;;;4925776;28;87862;-70
2023/05/01 09:30:05;;;;;;;1.80;1.60;;;19.90;44.40;20.10;100715.00;;;;4921964;28;90345;-70
2023/05/01 09:32:31;;;;;;;1.73;1.23;;;19.90;43.40;20.20;100713.00;;;;4924706;28;87384;-70
2023/05/01 09:35:12;;;;;;;1.98;1.50;;;19.90;44.20;20.20;100709.00;;;;4924535;28;99804;-71
2023/05/01 09:37:39;;;;;;;3.60;2.28;;;20.00;43.70;20.40;100710.00;;;;4923744;28;88148;-69
2023/05/01 09:40:12;;;;;;;2.13;1.65;;;20.10;44.20;20.50;100693.00;;;;4926803;28;88895;-70
2023/05/01 09:42:50;;;;;;;2.78;1.52;;;20.20;44.50;20.70;100694.00;;;;4924262;28;88210;-70
2023/05/01 09:45:18;;;;;;;4.55;3.05;;;20.40;43.80;20.60;100703.00;;;;4924726;28;87764;-70
2023/05/01 09:47:45;;;;;;;3.85;1.75;;;20.40;42.60;20.60;100690.00;;;;4925748;28;88503;-71
2023/05/01 09:50:28;;;;;;;1.98;1.08;;;20.30;43.30;20.80;100687.00;;;;4922437;28;103567;-70
2023/05/01 09:52:53;;;;;;;2.60;1.60;;;20.40;43.60;20.90;100688.00;;;;4918347;28;87675;-70
2023/05/01 09:55:19;;;;;;;3.70;2.33;;;20.60;43.40;21.20;100683.00;;;;4921286;28;108683;-70
2023/05/01 09:57:46;;;;;;;7.47;2.63;;;20.80;41.90;21.50;100679.00;;;;4922747;28;88012;-70
2023/05/01 10:00:14;;;;;;;3.05;1.98;;;21.00;42.80;21.80;100675.00;;;;4925599;28;87961;-71
2023/05/01 10:02:44;;;;;;;1.70;1.30;;;21.30;42.20;22.00;100674.00;;;;4924693;28;88032;-69
2023/05/01 10:05:11;;;;;;;2.25;1.58;;;21.50;41.70;22.00;100679.00;;;;4922847;28;89106;-70
2023/05/01 10:07:37;;;;;;;2.13;1.20;;;21.60;40.40;21.80;100672.00;;;;4925313;28;87923;-70
2023/05/01 10:10:17;;;;;;;2.85;1.13;;;21.50;40.40;21.60;100678.00;;;;4922066;28;107156;-69
2023/05/01 10:12:43;;;;;;;3.45;1.50;;;21.40;40.60;21.40;100677.00;;;;4922717;28;88269;-69
2023/05/01 10:15:09;;;;;;;3.08;1.65;;;21.20;41.20;21.30;100669.00;;;;4921605;28;108539;-69
2023/05/01 10:17:36;;;;;;;2.17;1.63;;;21.10;41.00;21.40;100660.00;;;;4924036;28;88128;-69
2023/05/01 10:20:01;;;;;;;2.83;1.63;;;21.00;41.10;21.60;100664.00;;;;4925026;28;88318;-70
2023/05/01 10:22:27;;;;;;;3.33;1.63;;;21.10;41.60;22.00;100655.00;;;;4924060;28;111741;-70
2023/05/01 10:24:53;;;;;;;2.28;1.65;;;21.40;41.30;22.10;100653.00;;;;4927258;28;87908;-70
2023/05/01 10:27:21;;;;;;;1.88;1.20;;;21.50;40.00;21.90;100648.00;;;;4925066;28;117189;-70
2023/05/01 10:29:51;;;;;;;1.63;1.27;;;21.50;39.80;21.90;100647.00;;;;4926202;28;88958;-68
2023/05/01 10:32:17;;;;;;;1.33;1.23;;;21.50;40.50;22.10;100653.00;;;;4921965;28;88080;-68
2023/05/01 10:34:51;;;;;;;1.90;1.75;;;21.60;40.60;22.20;100637.00;;;;4919804;28;107970;-69
2023/05/01 10:37:40;;;;;;;7.75;2.17;;;21.70;40.00;22.30;100630.00;;;;4922560;28;88361;-69
2023/05/01 10:40:47;;;;;;;7.90;1.30;;;21.90;39.80;22.20;100634.00;;;;4922683;28;87723;-70
2023/05/01 10:43:26;;;;;;;1.70;1.27;;;21.80;39.50;22.20;100623.00;;;;4921650;28;88144;-70
2023/05/01 10:45:54;;;;;;;1.65;1.35;;;21.90;40.00;22.30;100628.00;;;;4921967;28;88213;-70
2023/05/01 10:48:38;;;;;;;3.10;1.67;;;21.90;40.30;22.50;100630.00;;;;4922763;28;87451;-70
2023/05/01 10:51:21;;;;;;;4.70;1.85;;;22.00;40.20;22.70;100618.00;;;;4920554;28;87864;-69
2023/05/01 10:54:12;;;;;;;3.53;1.83;;;22.20;40.30;23.10;100615.00;;;;4923053;28;88119;-70